Terminal Aerodrome Forecast
Issued by NWS

Home | Current Version | Previous Version | Text Only | Print | Product List | Glossary On
Versions: 1 2 3 4 5 6 7 8 9 10 11 12 13 14 15
000
FTUS42 KFFC 251100
TAFRYY
TAF
KRYY 251121Z 2512/2612 00000KT 3SM BR SCT003
      TEMPO 2512/2514 BKN003
     FM251400 29005KT P6SM SCT020
     FM251600 26006KT P6SM SCT040
     FM260000 23003KT P6SM FEW050
     FM260900 00000KT 5SM BR FEW250=

USA.gov is the U.S. government's official web portal to all federal, state and local government web resources and services.